LFRS/NTE METAR and TAF weather

Enter ICAO airport designator
Station Type Date Time Source
LFRS METAR 2019/10/14 05:30 UTC NOAA

LFRS 140530Z AUTO 12005KT 090V150 9999 FEW017 BKN210 OVC230 16/15 Q1003 NOSIG


Station Type Date Time Source
LFRS Decoded METAR 2019/10/14 05:30 UTC NOAA

Nantes, France (LFRS) 47-10N 001-36W 27M
Oct 14, 2019 - 01:30 AM EDT / 2019.10.14 0530 UTC
Wind: from the ESE (120 degrees) at 6 MPH (5 KT) (direction variable):0
Visibility: greater than 7 mile(s):0
Sky conditions: overcast
Temperature: 60 F (16 C)
Dew Point: 59 F (15 C)
Relative Humidity: 93%
Pressure (altimeter): 29.62 in. Hg (1003 hPa)
ob: LFRS 140530Z AUTO 12005KT 090V150 9999 FEW017 BKN210 OVC230 16/15 Q1003 NOSIG
cycle: 5

Station Type Date Time Source
LFRS TAF 2019/10/14 06:45 UTC NOAA

TAF LFRS 140500Z 1406/1512 08006KT 9999 SCT018 BKN100
BECMG 1406/1408 17010KT
TEMPO 1408/1421 VRB15G30KT 4000 SHRA BKN020CB PROB40
TEMPO 1411/1418 2000 TSRA BKN015CB
TEMPO 1500/1512 24015G25KT 4000 SHRA BKN020CB

Example: see airport list